Aérodrome :







RETROUVEZ-NOUS SUR...

 
LOGIN :

S'inscrire | Disclaimer

   EN    FR    IT 

 









Légende :    VFR   VFR Marginal   IFR   IFR Intensif   IFR Très Intensif
Visi : 
Plafond : 
>= 8 km
>= 3000ft
5 à 8 km
1000 à 3000 ft
1500m à 5 km
500 à 1000 ft
800 à 1500m
200 à 500 ft
< 800m
< 200 ft
Symboles :   Orages  Brouillard  Fortes neiges  Fortes précipitations  Vent > 20 kt






- Altitude de l'aérodrome : 35 ft
- Code IATA : YGR


CYGR - ëles-de-la-Madeleine

DERNIER METAR :
  • 171700Z 31013KT 20SM BKN029 01/M06 A3039 RMK SC6 SLP294

METARs EXPIRÉS :
  • 171600Z 31013G18KT 20SM BKN031 01/M07 A3041 RMK SC6 SLP298
  • 171501Z 32014G20KT 20SM BKN033 01/M07 A3041 RMK SC5 SLP299

TAF TAF CYGR
Valide du 17 à 14h jusqu'au 18 à 02h UTC


171338Z 1714/1802 32015G25KT P6SM BKN030
TEMPO 1714/1724 BKN020
BECMG 1715/1717 27012KT
FM180000 24010KT P6SM BKN025
TEMPO 1800/1802 BKN015 RMK NXT FCST BY 172000Z



MET'MAP, la Météo Aéronautique d'un coup d'oeil ! - Copyright ORBIFLY Décembre 2007 - Disclaimer

ORBIFLY MET'MAP TEAM :

Programmation & Développement : Alexandra Zaïnal
Conception & Développement : Baudouin d'Aumeries
Co-Programmation & Développement : Marc-Olivier Méhu
Soutien technique & logistique : Manuel Goepfert

Contact : metmap@orbifly.com




SOURCES & CREDITS :

   NOAA